Observations for CAMBRIDGE, United Kingdom (EGSC)

EGSC 181650Z 22015KT 9999 SCT038 21/13 Q1009
EGSC 181620Z 22016KT 9999 BKN040 22/13 Q1009
EGSC 181550Z 21013G23KT 9999 BKN040 22/13 Q1009 
EGSC 181520Z 23015KT 9999 BKN040 22/12 Q1009
EGSC 181450Z 24015G25KT 9999 BKN040 22/12 Q1009 
EGSC 181420Z 23018KT 9999 SCT040 23/12 Q1009
EGSC 181350Z 24019KT 9999 FEW040 23/12 Q1008
EGSC 181250Z 23017G27KT 9999 FEW040 21/11 Q1008 
EGSC 181220Z 24019KT 9999 FEW040 21/11 Q1007
EGSC 181150Z 23016KT 9999 FEW030 21/11 Q1007
EGSC 181120Z 23019KT 9999 FEW030 21/11 Q1007
EGSC 181050Z 23022KT 9999 SCT025 22/12 Q1006
EGSC 181020Z 22015G25KT 9999 BKN019 20/14 Q1006 
EGSC 180950Z 22014G24KT 9999 BKN019 19/14 Q1006 
EGSC 180920Z 22018G28KT 9999 BKN019 20/14 Q1005 
EGSC 180850Z 22018G28KT 180V240 9999 BKN019 21/15 Q1005 
EGSC 180820Z 21016G27KT 9999 BKN019 20/15 Q1004 
EGSC 180750Z 20017KT 9999 SCT020 19/14 Q1004
EGSC 180720Z 21015G25KT 9999 BKN020 19/14 Q1004 
EGSC 180650Z 21015G27KT 9999 BKN023 19/14 Q1004